Time;durP1;ratioP1;P1;durP2;ratioP2;P2;SDS_P1;SDS_P2;PMS_P1;PMS_P2;Temp;Humidity;BMP_temperature;BMP_pressure;BME280_temperature;BME280_humidity;BME280_pressure;Samples;Min_cycle;Max_cycle;Signal;HPM_P1;HPM_P2
2023/09/05 00:03:53;;;;;;;15.10;10.60;;;;;;;12.21;82.90;99916.27;225920;1278;22582;-75
2023/09/05 00:08:55;;;;;;;14.60;10.20;;;;;;;12.18;83.05;99910.91;226044;1277;23298;-75
2023/09/05 00:14:00;;;;;;;15.40;10.70;;;;;;;12.14;83.15;99906.10;225937;1273;22617;-75
2023/09/05 00:19:02;;;;;;;14.30;10.40;;;;;;;12.10;83.25;99902.56;226053;1273;25241;-76
2023/09/05 00:24:33;;;;;;;12.10;9.50;;;;;;;12.05;83.52;99904.61;226014;1278;22541;-75
2023/09/05 00:29:35;;;;;;;10.70;9.40;;;;;;;12.01;83.74;99897.12;226052;1277;22540;-75
2023/09/05 00:34:38;;;;;;;12.50;9.40;;;;;;;11.96;83.90;99898.72;225876;1262;22545;-75
2023/09/05 00:39:41;;;;;;;13.90;10.00;;;;;;;11.92;83.94;99895.15;225936;1275;22544;-75
2023/09/05 00:44:47;;;;;;;12.80;10.00;;;;;;;11.87;84.07;99900.82;225949;1280;22733;-75
2023/09/05 00:49:50;;;;;;;15.00;11.20;;;;;;;11.82;84.21;99899.31;226051;1275;22540;-75
2023/09/05 00:54:54;;;;;;;15.40;12.00;;;;;;;11.76;84.36;99897.55;226000;1276;24216;-75
2023/09/05 00:59:56;;;;;;;18.50;12.50;;;;;;;11.74;84.54;99888.86;225921;1278;24188;-75
2023/09/05 01:04:59;;;;;;;14.90;12.50;;;;;;;11.70;84.52;99887.86;225984;1276;24202;-75
2023/09/05 01:10:14;;;;;;;16.90;13.10;;;;;;;11.66;84.71;99889.48;225870;1278;23291;-75
2023/09/05 01:15:17;;;;;;;16.50;12.30;;;;;;;11.63;84.80;99885.54;225979;1276;22542;-75
2023/09/05 01:20:20;;;;;;;15.20;12.20;;;;;;;11.62;85.03;99884.48;225855;1278;22537;-74
2023/09/05 01:25:22;;;;;;;14.70;12.00;;;;;;;11.60;85.04;99878.36;225972;1276;22544;-74
2023/09/05 01:30:24;;;;;;;13.80;11.40;;;;;;;11.57;85.25;99877.32;226054;1272;22606;-74
2023/09/05 01:35:27;;;;;;;13.90;10.30;;;;;;;11.54;85.39;99881.83;225512;1280;268489;-74
2023/09/05 01:40:29;;;;;;;17.40;11.00;;;;;;;11.52;85.33;99880.49;226037;1278;22541;-74
2023/09/05 01:45:31;;;;;;;14.20;10.60;;;;;;;11.48;85.34;99875.77;226000;1276;22538;-75
2023/09/05 01:50:33;;;;;;;14.30;11.10;;;;;;;11.44;85.40;99875.33;226039;1277;22561;-75
2023/09/05 01:55:35;;;;;;;14.30;11.20;;;;;;;11.40;85.45;99877.43;225923;1273;25353;-75
2023/09/05 02:00:37;;;;;;;15.70;10.70;;;;;;;11.35;85.55;99875.64;225998;1274;22554;-74
2023/09/05 02:05:39;;;;;;;14.60;10.20;;;;;;;11.34;85.90;99869.09;226029;1273;22894;-74
2023/09/05 02:10:45;;;;;;;13.10;10.30;;;;;;;11.33;85.91;99861.18;225932;1278;25526;-73
2023/09/05 02:15:47;;;;;;;13.10;10.60;;;;;;;11.30;85.77;99855.30;225921;1278;22537;-74
2023/09/05 02:20:49;;;;;;;12.20;10.30;;;;;;;11.24;85.62;99852.27;225839;1273;23011;-74
2023/09/05 02:25:59;;;;;;;12.00;10.40;;;;;;;11.18;85.76;99849.08;225940;1277;22572;-74
2023/09/05 02:31:06;;;;;;;11.80;10.20;;;;;;;11.11;85.75;99851.58;226012;1276;24148;-74
2023/09/05 02:36:18;;;;;;;14.80;10.40;;;;;;;11.06;85.85;99855.20;225933;1278;22553;-74
2023/09/05 02:41:20;;;;;;;16.00;10.90;;;;;;;11.00;85.88;99858.30;225916;1278;22553;-74
2023/09/05 02:46:23;;;;;;;15.00;11.20;;;;;;;10.95;86.11;99863.23;225950;1278;22537;-74
2023/09/05 02:51:25;;;;;;;14.30;10.30;;;;;;;10.89;86.19;99865.19;225715;1279;22547;-74
2023/09/05 02:56:27;;;;;;;12.40;10.90;;;;;;;10.83;86.22;99860.89;225995;1280;22546;-74
2023/09/05 03:01:29;;;;;;;13.50;10.10;;;;;;;10.79;86.17;99859.11;225972;1280;22542;-74
2023/09/05 03:06:31;;;;;;;15.10;11.40;;;;;;;10.74;86.44;99849.55;225960;1280;22555;-74
2023/09/05 03:11:33;;;;;;;12.70;10.50;;;;;;;10.72;86.55;99842.73;225943;1278;24925;-75
2023/09/05 03:16:35;;;;;;;14.00;9.90;;;;;;;10.70;86.70;99847.52;226004;1277;22545;-74
2023/09/05 03:21:38;;;;;;;14.40;10.90;;;;;;;10.68;86.83;99852.31;225892;1280;25268;-74
2023/09/05 03:26:40;;;;;;;12.60;10.80;;;;;;;10.67;86.57;99860.98;225936;1275;22563;-75
2023/09/05 03:31:43;;;;;;;14.60;11.70;;;;;;;10.63;86.55;99856.56;225936;1274;22552;-74
2023/09/05 03:36:48;;;;;;;13.10;10.40;;;;;;;10.61;86.78;99857.45;226002;1273;22550;-74
2023/09/05 03:41:50;;;;;;;14.00;10.00;;;;;;;10.59;86.95;99857.90;225928;1280;25298;-74
2023/09/05 03:46:52;;;;;;;14.80;11.10;;;;;;;10.58;87.21;99857.98;226031;1272;22624;-73
2023/09/05 03:51:57;;;;;;;14.80;11.10;;;;;;;10.58;86.95;99865.40;225972;1273;25272;-73
2023/09/05 03:56:59;;;;;;;13.90;10.70;;;;;;;10.55;86.98;99864.27;225776;1280;22536;-74
2023/09/05 04:02:01;;;;;;;13.70;11.20;;;;;;;10.53;87.05;99868.20;225780;1279;22563;-74
2023/09/05 04:07:03;;;;;;;15.90;11.30;;;;;;;10.53;87.14;99869.09;226063;1276;22540;-74
2023/09/05 04:12:05;;;;;;;12.10;10.60;;;;;;;10.56;87.45;99869.84;225899;1280;25582;-74
2023/09/05 04:17:07;;;;;;;13.40;10.30;;;;;;;10.60;87.46;99866.40;225736;1280;22548;-73
2023/09/05 04:22:09;;;;;;;15.10;10.50;;;;;;;10.64;87.47;99864.95;226009;1276;22547;-74
2023/09/05 04:27:11;;;;;;;14.10;10.70;;;;;;;10.69;87.55;99876.23;225878;1272;22543;-74
2023/09/05 04:32:13;;;;;;;15.50;10.00;;;;;;;10.72;87.38;99880.06;225891;1273;22530;-74
2023/09/05 04:37:19;;;;;;;13.50;10.60;;;;;;;10.77;87.63;99889.84;225958;1280;22561;-74
2023/09/05 04:42:25;;;;;;;12.90;10.00;;;;;;;10.82;87.57;99898.73;226028;1280;22559;-74
2023/09/05 04:47:28;;;;;;;13.20;9.70;;;;;;;10.89;87.57;99906.61;226070;1276;22541;-74
2023/09/05 04:52:31;;;;;;;12.10;9.80;;;;;;;10.99;87.64;99908.77;226091;1274;22532;-74
2023/09/05 04:57:33;;;;;;;14.10;10.10;;;;;;;11.10;87.67;99917.65;226034;1278;22540;-74
2023/09/05 05:02:35;;;;;;;15.50;10.70;;;;;;;11.22;87.45;99911.59;226027;1277;24209;-74
2023/09/05 05:07:39;;;;;;;14.40;10.90;;;;;;;11.38;87.77;99904.25;225912;1278;22532;-74
2023/09/05 05:12:41;;;;;;;26.10;10.60;;;;;;;11.54;87.58;99906.17;226049;1277;22585;-74
2023/09/05 05:17:43;;;;;;;12.70;10.50;;;;;;;11.70;87.65;99909.33;226067;1256;22572;-74
2023/09/05 05:22:45;;;;;;;16.90;10.70;;;;;;;11.84;87.47;99903.41;226039;1275;22561;-74
2023/09/05 05:27:48;;;;;;;21.30;11.50;;;;;;;11.99;87.53;99899.54;225937;1280;22554;-74
2023/09/05 05:32:50;;;;;;;18.40;13.90;;;;;;;12.16;87.60;99907.80;226079;1277;22529;-75
2023/09/05 05:37:52;;;;;;;16.40;10.70;;;;;;;12.38;87.62;99907.98;226063;1275;22566;-75
2023/09/05 05:42:54;;;;;;;14.90;11.10;;;;;;;12.59;87.44;99904.36;225870;1265;23660;-75
2023/09/05 05:47:57;;;;;;;16.20;9.80;;;;;;;12.82;87.30;99909.67;225775;1276;22544;-74
2023/09/05 05:52:59;;;;;;;17.10;9.60;;;;;;;13.03;87.17;99904.10;225585;1265;24733;-73
2023/09/05 05:58:01;;;;;;;9.80;7.40;;;;;;;13.24;86.93;99909.33;225606;1279;23294;-70
2023/09/05 06:03:04;;;;;;;14.00;8.50;;;;;;;13.44;86.28;99907.88;225506;1265;24424;-73
2023/09/05 06:08:06;;;;;;;12.20;8.30;;;;;;;13.62;85.99;99906.36;225469;1266;22535;-74
2023/09/05 06:13:08;;;;;;;10.70;8.70;;;;;;;13.76;85.51;99900.22;225501;1268;22962;-74
2023/09/05 06:18:11;;;;;;;15.30;11.10;;;;;;;13.92;85.29;99903.44;225423;1257;22540;-74
2023/09/05 06:23:14;;;;;;;15.10;10.90;;;;;;;14.08;85.30;99904.47;225382;1265;22533;-74
2023/09/05 06:28:16;;;;;;;10.80;9.50;;;;;;;14.25;85.19;99909.03;225574;1259;22565;-74
2023/09/05 06:33:19;;;;;;;11.50;9.50;;;;;;;14.43;84.85;99918.91;225574;1272;22549;-74
2023/09/05 06:38:22;;;;;;;12.60;8.40;;;;;;;14.65;84.91;99906.33;225475;1260;22643;-75
2023/09/05 06:43:26;;;;;;;10.70;8.70;;;;;;;14.85;84.46;99900.68;225528;1261;24919;-75
2023/09/05 06:48:29;;;;;;;12.60;8.30;;;;;;;15.05;84.31;99905.52;225378;1259;23013;-76
2023/09/05 06:53:33;;;;;;;11.30;8.20;;;;;;;15.26;84.13;99896.51;225393;1272;22539;-75
2023/09/05 06:58:34;;;;;;;15.40;10.10;;;;;;;15.52;84.11;99896.64;225411;1259;22949;-75
2023/09/05 07:03:36;;;;;;;11.50;8.00;;;;;;;15.76;83.94;99889.43;225296;1256;22536;-75
2023/09/05 07:08:38;;;;;;;10.20;7.70;;;;;;;16.03;83.55;99894.19;225395;1268;22635;-74
2023/09/05 07:13:41;;;;;;;8.50;6.60;;;;;;;16.26;83.25;99904.42;225191;1259;22548;-74
2023/09/05 07:18:43;;;;;;;8.40;7.10;;;;;;;16.52;82.75;99899.26;225226;1268;22613;-74
2023/09/05 07:23:45;;;;;;;9.70;7.30;;;;;;;16.75;82.16;99902.86;225497;1256;22567;-74
2023/09/05 07:28:47;;;;;;;7.40;6.60;;;;;;;16.98;81.70;99900.09;225494;1259;22533;-75
2023/09/05 07:33:49;;;;;;;10.80;9.40;;;;;;;17.18;80.98;99894.96;225774;1272;22529;-76
2023/09/05 07:38:51;;;;;;;9.10;6.60;;;;;;;17.42;80.68;99891.27;225574;1268;22599;-74
2023/09/05 07:43:53;;;;;;;9.20;6.50;;;;;;;17.64;80.44;99884.69;225586;1261;22560;-74
2023/09/05 07:48:55;;;;;;;7.20;6.50;;;;;;;17.87;80.18;99887.64;225793;1265;22788;-75
2023/09/05 07:54:10;;;;;;;6.80;6.10;;;;;;;18.11;79.66;99890.77;225476;1265;22596;-75
2023/09/05 07:59:13;;;;;;;10.30;8.70;;;;;;;18.36;79.19;99893.98;225462;1260;22553;-76
2023/09/05 08:04:15;;;;;;;6.40;5.80;;;;;;;18.59;78.86;99886.88;225342;1275;22614;-76
2023/09/05 08:09:17;;;;;;;7.70;6.20;;;;;;;18.81;78.08;99882.86;225083;1274;22533;-76
2023/09/05 08:14:19;;;;;;;8.00;6.90;;;;;;;19.00;77.54;99883.54;225197;1261;22903;-76
2023/09/05 08:19:21;;;;;;;9.40;6.50;;;;;;;19.21;77.14;99882.21;225506;1272;22538;-76
2023/09/05 08:24:23;;;;;;;8.20;5.80;;;;;;;19.39;76.48;99873.37;225218;1278;22577;-75
2023/09/05 08:29:26;;;;;;;6.20;5.60;;;;;;;19.58;75.96;99875.84;225400;1274;22598;-75
2023/09/05 08:34:28;;;;;;;5.70;4.90;;;;;;;19.78;75.06;99874.27;225590;1275;22581;-75
2023/09/05 08:39:30;;;;;;;8.40;5.50;;;;;;;19.97;73.99;99869.66;225758;1275;22552;-75
2023/09/05 08:44:42;;;;;;;5.10;4.40;;;;;;;20.13;73.11;99868.63;225448;1275;23063;-74
2023/09/05 08:49:44;;;;;;;5.70;4.80;;;;;;;20.32;72.75;99868.62;225662;1259;22574;-75
2023/09/05 08:54:50;;;;;;;4.90;4.00;;;;;;;20.56;72.17;99868.23;225836;1272;25400;-76
2023/09/05 08:59:54;;;;;;;4.80;4.20;;;;;;;20.75;71.48;99864.10;225872;1278;22553;-76
2023/09/05 09:04:56;;;;;;;7.60;4.30;;;;;;;20.92;70.36;99860.67;225698;1278;24315;-76
2023/09/05 09:09:59;;;;;;;4.00;3.30;;;;;;;21.04;69.75;99858.80;225391;1272;25368;-74
2023/09/05 09:15:11;;;;;;;4.30;3.50;;;;;;;21.16;69.15;99860.66;225705;1275;22532;-75
2023/09/05 09:20:14;;;;;;;3.80;3.20;;;;;;;21.30;68.41;99860.13;225821;1268;22534;-77
2023/09/05 09:25:20;;;;;;;8.30;4.80;;;;;;;21.40;67.25;99856.56;225509;1276;22568;-75
2023/09/05 09:30:26;;;;;;;6.00;4.20;;;;;;;21.50;67.14;99851.36;225665;1278;22527;-74
2023/09/05 09:35:28;;;;;;;5.10;3.80;;;;;;;21.63;66.85;99848.23;225575;1277;23125;-75
2023/09/05 09:40:36;;;;;;;4.40;3.70;;;;;;;21.78;66.47;99848.46;225488;1271;24530;-75
2023/09/05 09:45:38;;;;;;;9.70;3.60;;;;;;;21.95;65.75;99844.23;225749;1277;22537;-75
2023/09/05 09:50:43;;;;;;;5.30;3.00;;;;;;;22.10;64.84;99847.16;225682;1268;24229;-76
2023/09/05 09:55:50;;;;;;;5.70;3.60;;;;;;;22.23;64.42;99849.67;225730;1276;22544;-75
2023/09/05 10:00:55;;;;;;;5.10;3.10;;;;;;;22.39;64.27;99842.59;225540;1278;25224;-75
2023/09/05 10:06:00;;;;;;;6.10;2.80;;;;;;;22.55;63.67;99836.70;225683;1278;23164;-76
2023/09/05 10:11:03;;;;;;;3.10;2.80;;;;;;;22.66;62.88;99837.63;225602;1262;22541;-76
2023/09/05 10:16:07;;;;;;;12.10;10.70;;;;;;;22.79;62.41;99830.29;225702;1278;22570;-77
2023/09/05 10:21:25;;;;;;;3.00;2.80;;;;;;;22.90;61.83;99832.19;225508;1262;22563;-77
2023/09/05 10:27:01;;;;;;;4.40;3.00;;;;;;;22.98;61.35;99823.91;225310;1259;22885;-77
2023/09/05 10:32:24;;;;;;;4.50;3.10;;;;;;;23.09;60.53;99817.19;225281;1278;22557;-77
2023/09/05 10:37:27;;;;;;;4.70;3.40;;;;;;;23.17;60.17;99809.05;224983;1256;25021;-77
2023/09/05 10:42:32;;;;;;;9.60;8.00;;;;;;;23.27;60.35;99799.66;225186;1261;23013;-77
2023/09/05 10:47:35;;;;;;;6.90;4.20;;;;;;;23.41;60.72;99797.19;225243;1273;22691;-74
2023/09/05 10:52:37;;;;;;;4.20;3.70;;;;;;;23.54;59.90;99790.56;225153;1256;22548;-75
2023/09/05 10:57:40;;;;;;;3.90;3.50;;;;;;;23.57;58.53;99783.23;225152;1262;22542;-75
2023/09/05 11:02:44;;;;;;;3.40;3.10;;;;;;;23.55;58.19;99781.14;224976;1257;22605;-75
2023/09/05 11:07:50;;;;;;;3.40;2.90;;;;;;;23.62;57.48;99781.88;225285;1261;22559;-75
2023/09/05 11:12:52;;;;;;;8.80;7.90;;;;;;;23.69;56.73;99776.92;225474;1272;22740;-74
2023/09/05 11:17:59;;;;;;;3.60;3.30;;;;;;;23.83;56.96;99778.55;225286;1275;22558;-75
2023/09/05 11:23:20;;;;;;;3.80;3.10;;;;;;;24.03;56.26;99774.77;225460;1273;25658;-77
2023/09/05 11:28:24;;;;;;;4.40;3.10;;;;;;;24.18;55.96;99760.84;225249;1281;22566;-77
2023/09/05 11:33:27;;;;;;;3.00;2.80;;;;;;;24.34;55.45;99750.61;225263;1278;22552;-74
2023/09/05 11:38:45;;;;;;;5.00;3.00;;;;;;;24.42;54.52;99748.71;225570;1262;23082;-76
2023/09/05 11:43:50;;;;;;;4.30;3.40;;;;;;;24.52;54.16;99745.98;225396;1257;22559;-73
2023/09/05 11:48:52;;;;;;;4.60;3.10;;;;;;;24.55;53.81;99741.27;225653;1277;22545;-76
2023/09/05 11:53:54;;;;;;;5.20;3.40;;;;;;;24.56;53.91;99741.50;225292;1268;22540;-75
2023/09/05 11:58:56;;;;;;;4.70;2.90;;;;;;;24.64;53.46;99739.19;225448;1278;22667;-76
2023/09/05 12:04:03;;;;;;;4.60;2.90;;;;;;;24.59;52.59;99735.11;225333;1278;22545;-73
2023/09/05 12:09:11;;;;;;;3.30;2.70;;;;;;;24.55;52.54;99729.98;225265;1277;22564;-73
2023/09/05 12:14:13;;;;;;;2.80;2.30;;;;;;;24.54;51.75;99720.67;225340;1279;22541;-76
2023/09/05 12:19:16;;;;;;;4.20;2.70;;;;;;;24.56;51.47;99706.53;225148;1262;22596;-74
2023/09/05 12:24:23;;;;;;;4.80;2.50;;;;;;;24.69;51.83;99702.91;225220;1265;22527;-76
2023/09/05 12:29:40;;;;;;;4.50;3.10;;;;;;;24.78;51.10;99701.09;225447;1279;22553;-74
2023/09/05 12:34:43;;;;;;;4.80;3.20;;;;;;;24.89;51.13;99704.11;225719;1273;25300;-75
2023/09/05 12:39:46;;;;;;;5.00;3.10;;;;;;;24.89;50.85;99699.02;225583;1275;22544;-75
2023/09/05 12:44:48;;;;;;;3.30;2.60;;;;;;;24.87;51.22;99685.16;225580;1278;24229;-75
2023/09/05 12:49:51;;;;;;;3.00;2.80;;;;;;;24.86;50.96;99681.26;225550;1262;22559;-76
2023/09/05 12:55:12;;;;;;;10.30;3.10;;;;;;;24.93;50.87;99676.52;225545;1272;22564;-76
2023/09/05 13:00:16;;;;;;;2.90;2.60;;;;;;;24.99;50.60;99667.26;225249;1278;22581;-76
2023/09/05 13:05:18;;;;;;;3.50;2.90;;;;;;;25.05;50.78;99659.95;225246;1269;25239;-75
2023/09/05 13:10:20;;;;;;;3.00;2.70;;;;;;;25.08;50.36;99660.46;225148;1262;22551;-75
2023/09/05 13:15:23;;;;;;;3.00;2.70;;;;;;;25.07;50.06;99657.27;225592;1279;22545;-74
2023/09/05 13:20:25;;;;;;;5.30;3.30;;;;;;;25.11;49.87;99649.98;225368;1269;23265;-75
2023/09/05 13:25:32;;;;;;;3.70;3.40;;;;;;;25.19;50.28;99643.59;225356;1275;22575;-75
2023/09/05 13:30:35;;;;;;;3.00;2.80;;;;;;;25.22;50.33;99645.49;225418;1263;22555;-75
2023/09/05 13:35:38;;;;;;;3.80;3.10;;;;;;;25.22;50.11;99642.86;225296;1278;123873;-76
2023/09/05 13:40:40;;;;;;;5.40;3.50;;;;;;;25.25;50.52;99628.46;225688;1278;22770;-76
2023/09/05 13:45:42;;;;;;;3.20;2.90;;;;;;;25.31;50.24;99626.45;225497;1272;22737;-75
2023/09/05 13:50:45;;;;;;;4.10;3.00;;;;;;;25.38;49.84;99621.59;225529;1262;23089;-75
2023/09/05 13:55:48;;;;;;;3.80;2.90;;;;;;;25.41;49.62;99629.13;225330;1278;22922;-75
2023/09/05 14:00:51;;;;;;;3.60;3.30;;;;;;;25.40;49.61;99631.72;225439;1267;23053;-75
2023/09/05 14:05:54;;;;;;;3.60;3.20;;;;;;;25.32;48.82;99632.63;224983;1261;22640;-73
2023/09/05 14:10:56;;;;;;;3.40;3.10;;;;;;;25.19;48.66;99626.82;225321;1278;22631;-73
2023/09/05 14:15:59;;;;;;;5.40;3.30;;;;;;;25.02;48.92;99620.83;225406;1280;25253;-73
2023/09/05 14:21:02;;;;;;;3.80;3.00;;;;;;;24.93;49.71;99614.86;225544;1276;22569;-73
2023/09/05 14:26:04;;;;;;;3.10;2.80;;;;;;;24.90;49.84;99603.80;225963;1278;22557;-73
2023/09/05 14:31:06;;;;;;;4.00;3.20;;;;;;;24.85;49.80;99598.85;226151;1278;22547;-72
2023/09/05 14:36:08;;;;;;;3.10;2.80;;;;;;;24.83;49.58;99598.83;225921;1278;22531;-72
2023/09/05 14:41:10;;;;;;;3.60;2.90;;;;;;;24.81;49.28;99598.27;226127;1280;22549;-72
2023/09/05 14:46:12;;;;;;;3.20;2.90;;;;;;;24.79;48.95;99598.36;226173;1280;22549;-73
2023/09/05 14:51:14;;;;;;;3.30;3.00;;;;;;;24.77;48.65;99597.88;225967;1278;22561;-73
2023/09/05 14:56:16;;;;;;;2.80;2.40;;;;;;;24.71;48.73;99590.86;226173;1278;23422;-73
2023/09/05 15:01:19;;;;;;;2.90;2.70;;;;;;;24.63;48.83;99590.00;226172;1278;22531;-73
2023/09/05 15:06:22;;;;;;;3.60;3.00;;;;;;;24.54;49.29;99590.96;226110;1280;22537;-73
2023/09/05 15:11:24;;;;;;;3.00;2.80;;;;;;;24.49;49.65;99585.45;226133;1276;24212;-73
2023/09/05 15:16:28;;;;;;;3.30;3.00;;;;;;;24.45;49.90;99580.10;226149;1280;22538;-72
2023/09/05 15:21:31;;;;;;;3.60;3.10;;;;;;;24.38;50.08;99578.47;226196;1278;22547;-72
2023/09/05 15:26:33;;;;;;;3.10;2.70;;;;;;;24.32;50.25;99581.34;226183;1278;22572;-72
2023/09/05 15:31:35;;;;;;;3.20;2.80;;;;;;;24.23;49.92;99580.01;226187;1278;22547;-72
2023/09/05 15:36:38;;;;;;;4.60;2.60;;;;;;;24.12;50.33;99576.28;226202;1279;22555;-72
2023/09/05 15:41:40;;;;;;;3.40;3.10;;;;;;;24.05;50.13;99572.75;226097;1278;22545;-72
2023/09/05 15:46:42;;;;;;;3.80;3.10;;;;;;;23.97;50.03;99568.46;225952;1280;24217;-72
2023/09/05 15:51:45;;;;;;;3.80;3.50;;;;;;;23.90;49.97;99572.13;226158;1278;22505;-72
2023/09/05 15:56:47;;;;;;;2.80;2.60;;;;;;;23.80;50.25;99574.14;226122;1280;25452;-73
2023/09/05 16:01:49;;;;;;;3.30;3.10;;;;;;;23.66;50.66;99571.23;226143;1280;23067;-74
2023/09/05 16:06:52;;;;;;;6.10;3.30;;;;;;;23.55;51.13;99576.19;226135;1272;22620;-73
2023/09/05 16:11:56;;;;;;;3.60;3.00;;;;;;;23.42;51.37;99571.21;226177;1280;22552;-72
2023/09/05 16:16:58;;;;;;;3.50;3.00;;;;;;;23.28;51.44;99569.80;226187;1280;22610;-73
2023/09/05 16:22:01;;;;;;;4.30;3.30;;;;;;;23.11;51.65;99572.61;226203;1280;22529;-73
2023/09/05 16:27:03;;;;;;;4.00;3.60;;;;;;;22.92;52.06;99577.59;226184;1280;22571;-73
2023/09/05 16:32:06;;;;;;;3.60;3.20;;;;;;;22.69;52.52;99579.19;226139;1280;22610;-73
2023/09/05 16:37:08;;;;;;;3.90;3.20;;;;;;;22.45;52.70;99577.95;226167;1280;22527;-73
2023/09/05 16:42:11;;;;;;;4.10;3.20;;;;;;;22.22;52.90;99572.51;226127;1277;25488;-73
2023/09/05 16:47:13;;;;;;;5.90;5.30;;;;;;;21.99;53.56;99581.54;226143;1280;22542;-72
2023/09/05 16:52:16;;;;;;;6.50;4.10;;;;;;;21.77;54.34;99584.02;226157;1278;24678;-72
2023/09/05 16:57:18;;;;;;;4.20;3.80;;;;;;;21.51;54.71;99586.92;226161;1276;22533;-72
2023/09/05 17:02:20;;;;;;;5.70;4.10;;;;;;;21.25;55.33;99586.50;226101;1273;22548;-72
2023/09/05 17:07:22;;;;;;;5.10;4.10;;;;;;;20.98;55.85;99587.08;226096;1276;22557;-72
2023/09/05 17:12:24;;;;;;;5.20;3.80;;;;;;;20.72;56.28;99588.43;226140;1257;22540;-72
2023/09/05 17:17:26;;;;;;;4.60;4.10;;;;;;;20.45;56.72;99587.36;226094;1280;25064;-72
2023/09/05 17:22:28;;;;;;;6.20;5.00;;;;;;;20.18;57.36;99580.73;226086;1280;23015;-72
2023/09/05 17:27:30;;;;;;;6.60;5.40;;;;;;;19.90;57.89;99582.63;226120;1274;22574;-72
2023/09/05 17:32:32;;;;;;;7.80;5.10;;;;;;;19.63;58.53;99583.75;226097;1280;22550;-72
2023/09/05 17:37:35;;;;;;;6.60;5.00;;;;;;;19.36;59.13;99587.20;226046;1276;22536;-72
2023/09/05 17:42:37;;;;;;;6.50;5.00;;;;;;;19.10;59.86;99583.39;226127;1269;22540;-73
2023/09/05 17:47:39;;;;;;;7.10;5.60;;;;;;;18.85;60.47;99591.86;226058;1277;22566;-72
2023/09/05 17:52:42;;;;;;;10.80;7.00;;;;;;;18.61;60.96;99589.98;226197;1276;22553;-73
2023/09/05 17:57:45;;;;;;;7.30;6.50;;;;;;;18.40;61.55;99596.02;225999;1279;22540;-72
2023/09/05 18:02:48;;;;;;;6.60;5.60;;;;;;;18.21;62.10;99594.66;226010;1276;22566;-72
2023/09/05 18:07:50;;;;;;;7.00;5.90;;;;;;;18.02;62.61;99596.77;226082;1277;22544;-72
2023/09/05 18:12:52;;;;;;;9.20;5.90;;;;;;;17.86;63.09;99594.56;226094;1280;22528;-71
2023/09/05 18:17:54;;;;;;;9.50;6.00;;;;;;;17.71;63.46;99590.45;226112;1274;22567;-73
2023/09/05 18:22:56;;;;;;;8.10;6.10;;;;;;;17.57;63.91;99588.80;226117;1280;25343;-73
2023/09/05 18:27:59;;;;;;;8.90;6.00;;;;;;;17.44;64.40;99589.82;226072;1276;22564;-73
2023/09/05 18:33:00;;;;;;;9.30;5.90;;;;;;;17.31;64.68;99591.44;226055;1273;23432;-72
2023/09/05 18:38:03;;;;;;;10.20;6.20;;;;;;;17.17;65.19;99589.92;226097;1280;22528;-73
2023/09/05 18:43:06;;;;;;;8.00;6.00;;;;;;;17.04;65.51;99588.77;226108;1277;22579;-73
2023/09/05 18:48:08;;;;;;;8.60;5.90;;;;;;;16.90;65.92;99590.08;226064;1280;22599;-73
2023/09/05 18:53:10;;;;;;;9.30;7.10;;;;;;;16.78;66.33;99596.63;226076;1277;22960;-72
2023/09/05 18:58:12;;;;;;;9.80;6.10;;;;;;;16.65;66.68;99600.87;226050;1277;22617;-72
2023/09/05 19:03:14;;;;;;;7.00;6.10;;;;;;;16.52;66.97;99605.33;226104;1277;22539;-72
2023/09/05 19:08:16;;;;;;;8.60;6.90;;;;;;;16.42;67.43;99614.29;226044;1277;25368;-72
2023/09/05 19:13:51;;;;;;;10.30;6.50;;;;;;;16.31;67.77;99612.92;225589;1279;22562;-73
2023/09/05 19:18:55;;;;;;;8.70;6.00;;;;;;;16.18;67.90;99610.32;226065;1280;22553;-73
2023/09/05 19:23:58;;;;;;;9.90;6.60;;;;;;;16.06;68.44;99605.99;226075;1275;24820;-72
2023/09/05 19:29:00;;;;;;;10.70;7.30;;;;;;;15.96;68.22;99605.16;226096;1277;22561;-72
2023/09/05 19:34:02;;;;;;;9.40;7.00;;;;;;;15.84;68.60;99595.80;226078;1276;22569;-72
2023/09/05 19:39:04;;;;;;;10.60;7.30;;;;;;;15.75;69.21;99593.84;226036;1276;24999;-72
2023/09/05 19:44:08;;;;;;;9.00;7.10;;;;;;;15.66;69.42;99597.75;226070;1278;25286;-74
2023/09/05 19:49:10;;;;;;;14.20;10.10;;;;;;;15.53;69.50;99599.51;225918;1278;22549;-73
2023/09/05 19:54:14;;;;;;;8.90;7.10;;;;;;;15.42;69.88;99597.02;225928;1273;22558;-73
2023/09/05 19:59:16;;;;;;;9.10;7.40;;;;;;;15.32;70.12;99593.21;226014;1273;22553;-73
2023/09/05 20:04:18;;;;;;;9.50;7.50;;;;;;;15.22;70.38;99594.73;226027;1273;22527;-73
2023/09/05 20:09:21;;;;;;;10.50;7.60;;;;;;;15.12;70.85;99593.45;226054;1277;22570;-73
2023/09/05 20:14:23;;;;;;;8.50;7.20;;;;;;;15.05;71.33;99594.08;225902;1280;22546;-73
2023/09/05 20:19:25;;;;;;;9.50;7.20;;;;;;;14.98;71.70;99583.43;226050;1256;22558;-73
2023/09/05 20:24:27;;;;;;;8.20;6.70;;;;;;;14.92;71.99;99585.68;226015;1272;22540;-73
2023/09/05 20:29:29;;;;;;;10.10;6.80;;;;;;;14.85;72.14;99585.31;225986;1277;22560;-73
2023/09/05 20:34:31;;;;;;;8.80;6.80;;;;;;;14.77;72.38;99580.48;225977;1280;25226;-73
2023/09/05 20:39:35;;;;;;;8.10;6.70;;;;;;;14.69;73.04;99576.30;226029;1273;22536;-73
2023/09/05 20:44:38;;;;;;;8.60;7.00;;;;;;;14.61;73.21;99583.11;225983;1278;22766;-72
2023/09/05 20:49:40;;;;;;;9.30;7.00;;;;;;;14.54;73.31;99586.83;226023;1280;22550;-72
2023/09/05 20:54:42;;;;;;;7.80;6.50;;;;;;;14.48;73.98;99583.81;226043;1273;25460;-72
2023/09/05 20:59:44;;;;;;;9.50;6.70;;;;;;;14.43;73.90;99586.41;225975;1276;22544;-72
2023/09/05 21:04:46;;;;;;;8.70;6.60;;;;;;;14.40;74.01;99583.96;226076;1278;22548;-72
2023/09/05 21:09:53;;;;;;;10.60;6.80;;;;;;;14.37;74.45;99585.94;225941;1280;22552;-73
2023/09/05 21:14:55;;;;;;;11.00;7.10;;;;;;;14.32;74.61;99580.95;226054;1273;22560;-73
2023/09/05 21:19:59;;;;;;;9.20;7.20;;;;;;;14.28;75.02;99582.08;225980;1276;22547;-73
2023/09/05 21:25:02;;;;;;;9.60;7.10;;;;;;;14.25;75.25;99575.94;225962;1277;22890;-73
2023/09/05 21:30:08;;;;;;;10.00;7.30;;;;;;;14.20;75.23;99572.30;225981;1261;22531;-73
2023/09/05 21:35:10;;;;;;;8.10;7.30;;;;;;;14.15;75.53;99576.83;225973;1280;25838;-72
2023/09/05 21:40:13;;;;;;;10.20;7.20;;;;;;;14.09;75.74;99581.16;225987;1273;22556;-72
2023/09/05 21:45:16;;;;;;;9.40;7.30;;;;;;;14.03;75.88;99583.96;225924;1280;22608;-72
2023/09/05 21:50:17;;;;;;;10.10;7.50;;;;;;;13.97;76.05;99586.80;225940;1273;25282;-73
2023/09/05 21:55:19;;;;;;;10.20;7.80;;;;;;;13.93;76.39;99593.89;225943;1272;22540;-72
2023/09/05 22:00:31;;;;;;;9.20;7.90;;;;;;;13.90;76.33;99592.38;225979;1272;24768;-71
2023/09/05 22:05:35;;;;;;;9.00;7.60;;;;;;;13.86;76.68;99591.92;225983;1276;22532;-72
2023/09/05 22:10:38;;;;;;;12.10;7.90;;;;;;;13.80;76.60;99591.58;225977;1276;22543;-72
2023/09/05 22:15:41;;;;;;;11.40;8.40;;;;;;;13.75;76.78;99588.99;225984;1273;22550;-72
2023/09/05 22:20:43;;;;;;;10.10;8.20;;;;;;;13.70;77.07;99582.04;225949;1278;22543;-72
2023/09/05 22:25:59;;;;;;;10.50;8.70;;;;;;;13.65;77.25;99579.29;226002;1277;22561;-72
2023/09/05 22:31:04;;;;;;;9.90;8.00;;;;;;;13.60;77.24;99583.69;226002;1278;23753;-72
2023/09/05 22:36:06;;;;;;;9.30;7.80;;;;;;;13.53;77.48;99581.71;226034;1276;22490;-72
2023/09/05 22:41:08;;;;;;;12.30;8.00;;;;;;;13.46;77.67;99581.45;225955;1280;22534;-72
2023/09/05 22:46:10;;;;;;;11.00;8.00;;;;;;;13.41;77.98;99579.91;225886;1278;22564;-72
2023/09/05 22:51:12;;;;;;;9.70;7.80;;;;;;;13.38;78.28;99575.38;226034;1273;22957;-72
2023/09/05 22:56:17;;;;;;;11.10;8.60;;;;;;;13.34;78.54;99569.14;225790;1280;22559;-73
2023/09/05 23:01:19;;;;;;;11.90;9.50;;;;;;;13.27;78.40;99568.89;225889;1277;25422;-72
2023/09/05 23:06:21;;;;;;;11.20;8.70;;;;;;;13.19;78.53;99566.67;226024;1276;22537;-74
2023/09/05 23:11:25;;;;;;;12.10;9.30;;;;;;;13.12;78.79;99570.41;226041;1258;22539;-72
2023/09/05 23:16:27;;;;;;;10.00;8.90;;;;;;;13.06;79.13;99573.41;226003;1280;22544;-72
2023/09/05 23:21:29;;;;;;;13.20;9.70;;;;;;;13.01;79.37;99578.58;226026;1276;22540;-72